sensor_id;sensor_type;location;lat;lon;timestamp;P1;durP1;ratioP1;P2;durP2;ratioP2
1679;SDS011;838;51.794;12.258;2023-12-14T00:01:16;9.30;;;5.37;;
1679;SDS011;838;51.794;12.258;2023-12-14T00:03:42;8.43;;;4.90;;
1679;SDS011;838;51.794;12.258;2023-12-14T00:06:11;8.73;;;5.70;;
1679;SDS011;838;51.794;12.258;2023-12-14T00:08:37;9.10;;;6.00;;
1679;SDS011;838;51.794;12.258;2023-12-14T00:11:03;8.97;;;6.20;;
1679;SDS011;838;51.794;12.258;2023-12-14T00:13:32;9.17;;;5.93;;
1679;SDS011;838;51.794;12.258;2023-12-14T00:15:59;9.67;;;7.03;;
1679;SDS011;838;51.794;12.258;2023-12-14T00:18:25;10.73;;;6.53;;
1679;SDS011;838;51.794;12.258;2023-12-14T00:20:51;12.57;;;6.87;;
1679;SDS011;838;51.794;12.258;2023-12-14T00:23:17;12.10;;;7.00;;
1679;SDS011;838;51.794;12.258;2023-12-14T00:25:43;11.23;;;6.77;;
1679;SDS011;838;51.794;12.258;2023-12-14T00:28:09;15.10;;;7.47;;
1679;SDS011;838;51.794;12.258;2023-12-14T00:30:34;10.17;;;7.30;;
1679;SDS011;838;51.794;12.258;2023-12-14T00:33:00;10.40;;;7.33;;
1679;SDS011;838;51.794;12.258;2023-12-14T00:35:26;12.37;;;7.50;;
1679;SDS011;838;51.794;12.258;2023-12-14T00:37:52;13.20;;;8.07;;
1679;SDS011;838;51.794;12.258;2023-12-14T00:40:17;14.70;;;8.30;;
1679;SDS011;838;51.794;12.258;2023-12-14T00:42:43;12.27;;;7.63;;
1679;SDS011;838;51.794;12.258;2023-12-14T00:45:09;13.57;;;6.97;;
1679;SDS011;838;51.794;12.258;2023-12-14T00:47:35;10.77;;;6.70;;
1679;SDS011;838;51.794;12.258;2023-12-14T00:50:01;11.10;;;6.60;;
1679;SDS011;838;51.794;12.258;2023-12-14T00:52:27;9.10;;;6.60;;
1679;SDS011;838;51.794;12.258;2023-12-14T00:54:53;12.93;;;6.87;;
1679;SDS011;838;51.794;12.258;2023-12-14T00:57:18;8.70;;;5.70;;
1679;SDS011;838;51.794;12.258;2023-12-14T00:59:44;9.80;;;6.60;;
1679;SDS011;838;51.794;12.258;2023-12-14T01:02:10;11.00;;;6.83;;
1679;SDS011;838;51.794;12.258;2023-12-14T01:04:36;9.67;;;6.50;;
1679;SDS011;838;51.794;12.258;2023-12-14T01:07:01;11.20;;;6.77;;
1679;SDS011;838;51.794;12.258;2023-12-14T01:09:27;8.57;;;5.80;;
1679;SDS011;838;51.794;12.258;2023-12-14T01:11:53;9.90;;;5.97;;
1679;SDS011;838;51.794;12.258;2023-12-14T01:14:19;9.10;;;6.30;;
1679;SDS011;838;51.794;12.258;2023-12-14T01:16:44;9.80;;;6.40;;
1679;SDS011;838;51.794;12.258;2023-12-14T01:19:10;8.03;;;5.50;;
1679;SDS011;838;51.794;12.258;2023-12-14T01:21:36;9.30;;;6.17;;
1679;SDS011;838;51.794;12.258;2023-12-14T01:24:01;8.53;;;6.03;;
1679;SDS011;838;51.794;12.258;2023-12-14T01:26:27;11.83;;;5.90;;
1679;SDS011;838;51.794;12.258;2023-12-14T01:28:53;10.60;;;6.47;;
1679;SDS011;838;51.794;12.258;2023-12-14T01:31:19;12.40;;;7.17;;
1679;SDS011;838;51.794;12.258;2023-12-14T01:33:48;14.07;;;7.00;;
1679;SDS011;838;51.794;12.258;2023-12-14T01:36:23;13.00;;;7.30;;
1679;SDS011;838;51.794;12.258;2023-12-14T01:38:50;10.07;;;6.20;;
1679;SDS011;838;51.794;12.258;2023-12-14T01:41:16;10.13;;;7.70;;
1679;SDS011;838;51.794;12.258;2023-12-14T01:43:42;12.80;;;8.07;;
1679;SDS011;838;51.794;12.258;2023-12-14T01:46:09;11.47;;;8.27;;
1679;SDS011;838;51.794;12.258;2023-12-14T01:48:35;12.90;;;7.67;;
1679;SDS011;838;51.794;12.258;2023-12-14T01:51:01;15.80;;;8.17;;
1679;SDS011;838;51.794;12.258;2023-12-14T01:53:28;13.80;;;8.10;;
1679;SDS011;838;51.794;12.258;2023-12-14T01:55:54;14.67;;;7.30;;
1679;SDS011;838;51.794;12.258;2023-12-14T01:58:20;14.47;;;10.37;;
1679;SDS011;838;51.794;12.258;2023-12-14T02:03:32;13.33;;;9.83;;
1679;SDS011;838;51.794;12.258;2023-12-14T02:05:58;13.53;;;9.60;;
1679;SDS011;838;51.794;12.258;2023-12-14T02:08:25;11.23;;;8.17;;
1679;SDS011;838;51.794;12.258;2023-12-14T02:10:52;9.27;;;6.00;;
1679;SDS011;838;51.794;12.258;2023-12-14T02:13:18;13.33;;;8.07;;
1679;SDS011;838;51.794;12.258;2023-12-14T02:15:44;12.80;;;7.43;;
1679;SDS011;838;51.794;12.258;2023-12-14T02:18:09;17.33;;;9.77;;
1679;SDS011;838;51.794;12.258;2023-12-14T02:20:35;11.10;;;7.37;;
1679;SDS011;838;51.794;12.258;2023-12-14T02:23:01;10.37;;;6.23;;
1679;SDS011;838;51.794;12.258;2023-12-14T02:25:27;9.37;;;5.80;;
1679;SDS011;838;51.794;12.258;2023-12-14T02:27:52;11.03;;;7.03;;
1679;SDS011;838;51.794;12.258;2023-12-14T02:30:18;10.27;;;6.50;;
1679;SDS011;838;51.794;12.258;2023-12-14T02:32:44;11.10;;;6.90;;
1679;SDS011;838;51.794;12.258;2023-12-14T02:35:10;11.83;;;7.20;;
1679;SDS011;838;51.794;12.258;2023-12-14T02:37:36;9.90;;;7.37;;
1679;SDS011;838;51.794;12.258;2023-12-14T02:40:02;15.00;;;8.40;;
1679;SDS011;838;51.794;12.258;2023-12-14T02:42:29;13.90;;;8.00;;
1679;SDS011;838;51.794;12.258;2023-12-14T02:44:56;11.20;;;7.77;;
1679;SDS011;838;51.794;12.258;2023-12-14T02:47:22;11.43;;;6.57;;
1679;SDS011;838;51.794;12.258;2023-12-14T02:49:47;14.07;;;8.80;;
1679;SDS011;838;51.794;12.258;2023-12-14T02:52:13;9.77;;;5.73;;
1679;SDS011;838;51.794;12.258;2023-12-14T02:54:39;10.90;;;7.23;;
1679;SDS011;838;51.794;12.258;2023-12-14T02:57:05;11.73;;;6.03;;
1679;SDS011;838;51.794;12.258;2023-12-14T02:59:31;9.43;;;5.97;;
1679;SDS011;838;51.794;12.258;2023-12-14T03:01:57;17.70;;;9.87;;
1679;SDS011;838;51.794;12.258;2023-12-14T03:04:23;13.90;;;8.20;;
1679;SDS011;838;51.794;12.258;2023-12-14T03:06:48;20.20;;;9.27;;
1679;SDS011;838;51.794;12.258;2023-12-14T03:09:14;19.70;;;10.53;;
1679;SDS011;838;51.794;12.258;2023-12-14T03:11:40;15.90;;;9.23;;
1679;SDS011;838;51.794;12.258;2023-12-14T03:14:06;21.67;;;11.13;;
1679;SDS011;838;51.794;12.258;2023-12-14T03:16:31;16.00;;;9.70;;
1679;SDS011;838;51.794;12.258;2023-12-14T03:18:57;17.93;;;10.07;;
1679;SDS011;838;51.794;12.258;2023-12-14T03:21:23;16.13;;;10.10;;
1679;SDS011;838;51.794;12.258;2023-12-14T03:23:49;16.80;;;8.63;;
1679;SDS011;838;51.794;12.258;2023-12-14T03:26:15;15.60;;;9.17;;
1679;SDS011;838;51.794;12.258;2023-12-14T03:28:41;17.57;;;9.63;;
1679;SDS011;838;51.794;12.258;2023-12-14T03:31:07;17.03;;;8.70;;
1679;SDS011;838;51.794;12.258;2023-12-14T03:33:36;15.83;;;9.27;;
1679;SDS011;838;51.794;12.258;2023-12-14T03:36:02;17.60;;;9.57;;
1679;SDS011;838;51.794;12.258;2023-12-14T03:38:28;19.53;;;9.57;;
1679;SDS011;838;51.794;12.258;2023-12-14T03:40:54;17.97;;;10.90;;
1679;SDS011;838;51.794;12.258;2023-12-14T03:43:20;17.80;;;9.43;;
1679;SDS011;838;51.794;12.258;2023-12-14T03:45:46;20.00;;;11.20;;
1679;SDS011;838;51.794;12.258;2023-12-14T03:48:12;19.80;;;10.10;;
1679;SDS011;838;51.794;12.258;2023-12-14T03:50:37;19.70;;;10.23;;
1679;SDS011;838;51.794;12.258;2023-12-14T03:53:03;29.73;;;14.60;;
1679;SDS011;838;51.794;12.258;2023-12-14T03:55:29;23.20;;;11.83;;
1679;SDS011;838;51.794;12.258;2023-12-14T03:57:54;19.87;;;11.13;;
1679;SDS011;838;51.794;12.258;2023-12-14T04:00:20;18.33;;;9.10;;
1679;SDS011;838;51.794;12.258;2023-12-14T04:02:46;18.37;;;9.90;;
1679;SDS011;838;51.794;12.258;2023-12-14T04:05:12;18.30;;;10.10;;
1679;SDS011;838;51.794;12.258;2023-12-14T04:07:38;19.57;;;10.13;;
1679;SDS011;838;51.794;12.258;2023-12-14T04:10:14;25.70;;;12.30;;
1679;SDS011;838;51.794;12.258;2023-12-14T04:12:40;24.60;;;11.40;;
1679;SDS011;838;51.794;12.258;2023-12-14T04:15:07;20.90;;;12.13;;
1679;SDS011;838;51.794;12.258;2023-12-14T04:17:34;19.47;;;10.90;;
1679;SDS011;838;51.794;12.258;2023-12-14T04:20:00;22.10;;;11.40;;
1679;SDS011;838;51.794;12.258;2023-12-14T04:22:27;27.40;;;12.37;;
1679;SDS011;838;51.794;12.258;2023-12-14T04:24:53;20.73;;;11.40;;
1679;SDS011;838;51.794;12.258;2023-12-14T04:27:19;22.77;;;11.03;;
1679;SDS011;838;51.794;12.258;2023-12-14T04:29:45;26.20;;;13.00;;
1679;SDS011;838;51.794;12.258;2023-12-14T04:32:11;24.47;;;11.87;;
1679;SDS011;838;51.794;12.258;2023-12-14T04:34:37;22.40;;;10.60;;
1679;SDS011;838;51.794;12.258;2023-12-14T04:37:02;23.60;;;10.57;;
1679;SDS011;838;51.794;12.258;2023-12-14T04:39:28;23.10;;;10.30;;
1679;SDS011;838;51.794;12.258;2023-12-14T04:41:54;17.70;;;10.50;;
1679;SDS011;838;51.794;12.258;2023-12-14T04:44:20;22.50;;;11.10;;
1679;SDS011;838;51.794;12.258;2023-12-14T04:46:47;15.33;;;10.67;;
1679;SDS011;838;51.794;12.258;2023-12-14T04:49:13;19.20;;;10.50;;
1679;SDS011;838;51.794;12.258;2023-12-14T04:51:39;15.20;;;10.17;;
1679;SDS011;838;51.794;12.258;2023-12-14T04:54:05;18.80;;;10.00;;
1679;SDS011;838;51.794;12.258;2023-12-14T04:56:30;14.27;;;8.60;;
1679;SDS011;838;51.794;12.258;2023-12-14T04:58:56;16.07;;;9.73;;
1679;SDS011;838;51.794;12.258;2023-12-14T05:01:23;16.10;;;9.50;;
1679;SDS011;838;51.794;12.258;2023-12-14T05:03:49;16.33;;;9.73;;
1679;SDS011;838;51.794;12.258;2023-12-14T05:06:15;19.30;;;10.43;;
1679;SDS011;838;51.794;12.258;2023-12-14T05:08:41;17.93;;;10.50;;
1679;SDS011;838;51.794;12.258;2023-12-14T05:11:06;17.20;;;10.03;;
1679;SDS011;838;51.794;12.258;2023-12-14T05:13:32;19.73;;;10.20;;
1679;SDS011;838;51.794;12.258;2023-12-14T05:15:58;18.57;;;10.53;;
1679;SDS011;838;51.794;12.258;2023-12-14T05:18:24;24.47;;;11.57;;
1679;SDS011;838;51.794;12.258;2023-12-14T05:20:50;16.23;;;9.70;;
1679;SDS011;838;51.794;12.258;2023-12-14T05:23:16;20.03;;;11.67;;
1679;SDS011;838;51.794;12.258;2023-12-14T05:25:41;21.33;;;10.60;;
1679;SDS011;838;51.794;12.258;2023-12-14T05:28:07;23.20;;;11.33;;
1679;SDS011;838;51.794;12.258;2023-12-14T05:30:33;20.20;;;11.17;;
1679;SDS011;838;51.794;12.258;2023-12-14T05:32:59;23.60;;;11.10;;
1679;SDS011;838;51.794;12.258;2023-12-14T05:35:24;22.70;;;11.53;;
1679;SDS011;838;51.794;12.258;2023-12-14T05:37:50;20.20;;;11.60;;
1679;SDS011;838;51.794;12.258;2023-12-14T05:40:16;19.50;;;11.33;;
1679;SDS011;838;51.794;12.258;2023-12-14T05:42:42;16.23;;;10.00;;
1679;SDS011;838;51.794;12.258;2023-12-14T05:45:08;19.30;;;10.70;;
1679;SDS011;838;51.794;12.258;2023-12-14T05:47:34;22.83;;;11.37;;
1679;SDS011;838;51.794;12.258;2023-12-14T05:50:00;19.07;;;11.00;;
1679;SDS011;838;51.794;12.258;2023-12-14T05:52:26;21.20;;;10.93;;
1679;SDS011;838;51.794;12.258;2023-12-14T05:54:52;22.77;;;11.93;;
1679;SDS011;838;51.794;12.258;2023-12-14T05:57:18;17.97;;;10.87;;
1679;SDS011;838;51.794;12.258;2023-12-14T05:59:44;26.50;;;13.93;;
1679;SDS011;838;51.794;12.258;2023-12-14T06:02:10;22.37;;;13.20;;
1679;SDS011;838;51.794;12.258;2023-12-14T06:04:35;23.90;;;12.30;;
1679;SDS011;838;51.794;12.258;2023-12-14T06:07:01;27.37;;;13.40;;
1679;SDS011;838;51.794;12.258;2023-12-14T06:09:27;24.00;;;13.60;;
1679;SDS011;838;51.794;12.258;2023-12-14T06:12:03;20.27;;;11.77;;
1679;SDS011;838;51.794;12.258;2023-12-14T06:14:30;22.90;;;11.97;;
1679;SDS011;838;51.794;12.258;2023-12-14T06:16:55;26.03;;;13.67;;
1679;SDS011;838;51.794;12.258;2023-12-14T06:19:21;26.70;;;13.10;;
1679;SDS011;838;51.794;12.258;2023-12-14T06:21:48;24.40;;;13.77;;
1679;SDS011;838;51.794;12.258;2023-12-14T06:24:14;30.83;;;13.30;;
1679;SDS011;838;51.794;12.258;2023-12-14T06:26:40;28.43;;;12.70;;
1679;SDS011;838;51.794;12.258;2023-12-14T06:29:08;21.80;;;11.87;;
1679;SDS011;838;51.794;12.258;2023-12-14T06:31:34;22.17;;;11.80;;
1679;SDS011;838;51.794;12.258;2023-12-14T06:34:00;32.00;;;13.57;;
1679;SDS011;838;51.794;12.258;2023-12-14T06:36:29;30.10;;;13.20;;
1679;SDS011;838;51.794;12.258;2023-12-14T06:38:55;21.13;;;12.00;;
1679;SDS011;838;51.794;12.258;2023-12-14T06:41:22;23.50;;;11.93;;
1679;SDS011;838;51.794;12.258;2023-12-14T06:43:48;24.00;;;11.87;;
1679;SDS011;838;51.794;12.258;2023-12-14T06:46:15;26.60;;;14.33;;
1679;SDS011;838;51.794;12.258;2023-12-14T06:48:41;25.60;;;13.27;;
1679;SDS011;838;51.794;12.258;2023-12-14T06:51:07;25.90;;;12.97;;
1679;SDS011;838;51.794;12.258;2023-12-14T06:53:33;28.43;;;13.20;;
1679;SDS011;838;51.794;12.258;2023-12-14T06:55:59;29.17;;;12.60;;
1679;SDS011;838;51.794;12.258;2023-12-14T06:58:25;27.53;;;13.33;;
1679;SDS011;838;51.794;12.258;2023-12-14T07:00:51;25.43;;;12.47;;
1679;SDS011;838;51.794;12.258;2023-12-14T07:03:16;23.60;;;11.20;;
1679;SDS011;838;51.794;12.258;2023-12-14T07:05:42;19.93;;;12.70;;
1679;SDS011;838;51.794;12.258;2023-12-14T07:08:08;21.53;;;10.97;;
1679;SDS011;838;51.794;12.258;2023-12-14T07:10:33;25.50;;;11.20;;
1679;SDS011;838;51.794;12.258;2023-12-14T07:12:59;20.17;;;12.23;;
1679;SDS011;838;51.794;12.258;2023-12-14T07:15:25;17.13;;;8.77;;
1679;SDS011;838;51.794;12.258;2023-12-14T07:17:50;17.17;;;10.60;;
1679;SDS011;838;51.794;12.258;2023-12-14T07:20:16;18.70;;;10.23;;
1679;SDS011;838;51.794;12.258;2023-12-14T07:22:42;19.63;;;11.50;;
1679;SDS011;838;51.794;12.258;2023-12-14T07:25:08;19.77;;;10.60;;
1679;SDS011;838;51.794;12.258;2023-12-14T07:27:34;22.80;;;11.33;;
1679;SDS011;838;51.794;12.258;2023-12-14T07:30:00;19.47;;;11.67;;
1679;SDS011;838;51.794;12.258;2023-12-14T07:32:25;20.20;;;11.20;;
1679;SDS011;838;51.794;12.258;2023-12-14T07:34:52;19.57;;;11.70;;
1679;SDS011;838;51.794;12.258;2023-12-14T07:37:18;22.07;;;12.03;;
1679;SDS011;838;51.794;12.258;2023-12-14T07:39:43;25.70;;;11.70;;
1679;SDS011;838;51.794;12.258;2023-12-14T07:42:09;23.77;;;12.30;;
1679;SDS011;838;51.794;12.258;2023-12-14T07:44:35;23.80;;;12.63;;
1679;SDS011;838;51.794;12.258;2023-12-14T07:47:02;23.60;;;13.80;;
1679;SDS011;838;51.794;12.258;2023-12-14T07:49:28;21.20;;;13.10;;
1679;SDS011;838;51.794;12.258;2023-12-14T07:51:54;21.10;;;11.90;;
1679;SDS011;838;51.794;12.258;2023-12-14T07:54:19;20.23;;;11.33;;
1679;SDS011;838;51.794;12.258;2023-12-14T07:56:45;22.63;;;11.80;;
1679;SDS011;838;51.794;12.258;2023-12-14T07:59:11;22.57;;;12.63;;
1679;SDS011;838;51.794;12.258;2023-12-14T08:01:37;23.67;;;13.20;;
1679;SDS011;838;51.794;12.258;2023-12-14T08:04:02;21.27;;;11.07;;
1679;SDS011;838;51.794;12.258;2023-12-14T08:06:31;20.20;;;11.73;;
1679;SDS011;838;51.794;12.258;2023-12-14T08:08:57;19.50;;;11.40;;
1679;SDS011;838;51.794;12.258;2023-12-14T08:11:23;21.97;;;11.47;;
1679;SDS011;838;51.794;12.258;2023-12-14T08:13:52;22.40;;;10.67;;
1679;SDS011;838;51.794;12.258;2023-12-14T08:16:18;23.83;;;12.37;;
1679;SDS011;838;51.794;12.258;2023-12-14T08:18:44;19.33;;;11.23;;
1679;SDS011;838;51.794;12.258;2023-12-14T08:21:11;19.83;;;11.23;;
1679;SDS011;838;51.794;12.258;2023-12-14T08:23:37;24.10;;;12.10;;
1679;SDS011;838;51.794;12.258;2023-12-14T08:26:03;19.73;;;12.03;;
1679;SDS011;838;51.794;12.258;2023-12-14T08:28:29;22.73;;;12.50;;
1679;SDS011;838;51.794;12.258;2023-12-14T08:30:54;24.43;;;12.70;;
1679;SDS011;838;51.794;12.258;2023-12-14T08:33:22;17.40;;;11.50;;
1679;SDS011;838;51.794;12.258;2023-12-14T08:35:48;25.20;;;12.53;;
1679;SDS011;838;51.794;12.258;2023-12-14T08:38:15;20.57;;;12.03;;
1679;SDS011;838;51.794;12.258;2023-12-14T08:40:41;19.27;;;11.40;;
1679;SDS011;838;51.794;12.258;2023-12-14T08:43:07;25.30;;;12.93;;
1679;SDS011;838;51.794;12.258;2023-12-14T08:45:33;19.30;;;11.53;;
1679;SDS011;838;51.794;12.258;2023-12-14T08:47:58;19.50;;;10.80;;
1679;SDS011;838;51.794;12.258;2023-12-14T08:50:24;22.13;;;10.90;;
1679;SDS011;838;51.794;12.258;2023-12-14T08:52:51;17.80;;;10.13;;
1679;SDS011;838;51.794;12.258;2023-12-14T08:55:17;20.90;;;10.97;;
1679;SDS011;838;51.794;12.258;2023-12-14T08:57:43;17.57;;;10.50;;
1679;SDS011;838;51.794;12.258;2023-12-14T09:00:09;21.03;;;11.53;;
1679;SDS011;838;51.794;12.258;2023-12-14T09:02:35;19.50;;;9.57;;
1679;SDS011;838;51.794;12.258;2023-12-14T09:05:01;17.87;;;9.03;;
1679;SDS011;838;51.794;12.258;2023-12-14T09:07:29;16.90;;;9.20;;
1679;SDS011;838;51.794;12.258;2023-12-14T09:09:55;24.07;;;10.83;;
1679;SDS011;838;51.794;12.258;2023-12-14T09:12:21;15.27;;;9.07;;
1679;SDS011;838;51.794;12.258;2023-12-14T09:14:47;15.27;;;9.47;;
1679;SDS011;838;51.794;12.258;2023-12-14T09:17:13;20.90;;;10.30;;
1679;SDS011;838;51.794;12.258;2023-12-14T09:19:39;24.33;;;10.93;;
1679;SDS011;838;51.794;12.258;2023-12-14T09:22:04;20.07;;;10.50;;
1679;SDS011;838;51.794;12.258;2023-12-14T09:24:30;16.17;;;9.30;;
1679;SDS011;838;51.794;12.258;2023-12-14T09:26:56;14.40;;;7.87;;
1679;SDS011;838;51.794;12.258;2023-12-14T09:29:21;18.47;;;9.47;;
1679;SDS011;838;51.794;12.258;2023-12-14T09:31:47;16.57;;;10.10;;
1679;SDS011;838;51.794;12.258;2023-12-14T09:34:13;17.10;;;9.90;;
1679;SDS011;838;51.794;12.258;2023-12-14T09:36:39;18.33;;;9.47;;
1679;SDS011;838;51.794;12.258;2023-12-14T09:39:05;16.90;;;9.47;;
1679;SDS011;838;51.794;12.258;2023-12-14T09:41:38;19.20;;;9.50;;
1679;SDS011;838;51.794;12.258;2023-12-14T09:44:04;18.17;;;10.30;;
1679;SDS011;838;51.794;12.258;2023-12-14T09:46:32;22.57;;;10.10;;
1679;SDS011;838;51.794;12.258;2023-12-14T09:49:01;20.63;;;11.37;;
1679;SDS011;838;51.794;12.258;2023-12-14T09:51:29;19.93;;;10.30;;
1679;SDS011;838;51.794;12.258;2023-12-14T09:53:55;19.87;;;10.30;;
1679;SDS011;838;51.794;12.258;2023-12-14T09:56:25;20.77;;;10.37;;
1679;SDS011;838;51.794;12.258;2023-12-14T09:58:51;23.13;;;10.90;;
1679;SDS011;838;51.794;12.258;2023-12-14T10:01:21;24.53;;;10.20;;
1679;SDS011;838;51.794;12.258;2023-12-14T10:03:49;17.60;;;9.30;;
1679;SDS011;838;51.794;12.258;2023-12-14T10:06:15;20.27;;;10.70;;
1679;SDS011;838;51.794;12.258;2023-12-14T10:08:42;19.90;;;10.33;;
1679;SDS011;838;51.794;12.258;2023-12-14T10:11:21;27.87;;;10.93;;
1679;SDS011;838;51.794;12.258;2023-12-14T10:13:47;19.90;;;10.20;;
1679;SDS011;838;51.794;12.258;2023-12-14T10:16:25;21.70;;;9.87;;
1679;SDS011;838;51.794;12.258;2023-12-14T10:18:53;16.43;;;8.67;;
1679;SDS011;838;51.794;12.258;2023-12-14T10:21:18;21.67;;;10.23;;
1679;SDS011;838;51.794;12.258;2023-12-14T10:23:44;19.17;;;11.00;;
1679;SDS011;838;51.794;12.258;2023-12-14T10:26:11;14.50;;;8.90;;
1679;SDS011;838;51.794;12.258;2023-12-14T10:28:39;22.50;;;10.77;;
1679;SDS011;838;51.794;12.258;2023-12-14T10:31:05;20.80;;;9.97;;
1679;SDS011;838;51.794;12.258;2023-12-14T10:33:32;19.57;;;10.10;;
1679;SDS011;838;51.794;12.258;2023-12-14T10:35:58;23.17;;;11.30;;
1679;SDS011;838;51.794;12.258;2023-12-14T10:38:24;17.83;;;9.53;;
1679;SDS011;838;51.794;12.258;2023-12-14T10:40:52;20.17;;;10.20;;
1679;SDS011;838;51.794;12.258;2023-12-14T10:43:19;17.97;;;9.70;;
1679;SDS011;838;51.794;12.258;2023-12-14T10:45:46;18.90;;;9.23;;
1679;SDS011;838;51.794;12.258;2023-12-14T10:48:16;21.23;;;10.00;;
1679;SDS011;838;51.794;12.258;2023-12-14T10:50:45;26.07;;;10.57;;
1679;SDS011;838;51.794;12.258;2023-12-14T10:53:13;20.53;;;10.30;;
1679;SDS011;838;51.794;12.258;2023-12-14T10:55:43;16.20;;;9.00;;
1679;SDS011;838;51.794;12.258;2023-12-14T10:58:10;18.00;;;10.00;;
1679;SDS011;838;51.794;12.258;2023-12-14T11:00:36;18.70;;;9.30;;
1679;SDS011;838;51.794;12.258;2023-12-14T11:03:05;17.93;;;9.23;;
1679;SDS011;838;51.794;12.258;2023-12-14T11:05:32;16.10;;;8.23;;
1679;SDS011;838;51.794;12.258;2023-12-14T11:08:05;17.27;;;9.00;;
1679;SDS011;838;51.794;12.258;2023-12-14T11:10:42;15.07;;;7.60;;
1679;SDS011;838;51.794;12.258;2023-12-14T11:13:17;16.30;;;8.17;;
1679;SDS011;838;51.794;12.258;2023-12-14T11:15:50;17.37;;;8.40;;
1679;SDS011;838;51.794;12.258;2023-12-14T11:18:23;18.80;;;9.50;;
1679;SDS011;838;51.794;12.258;2023-12-14T11:25:51;19.33;;;9.10;;
1679;SDS011;838;51.794;12.258;2023-12-14T11:28:18;22.37;;;10.97;;
1679;SDS011;838;51.794;12.258;2023-12-14T11:30:45;19.43;;;9.77;;
1679;SDS011;838;51.794;12.258;2023-12-14T11:33:11;22.97;;;10.87;;
1679;SDS011;838;51.794;12.258;2023-12-14T11:35:38;24.37;;;9.50;;
1679;SDS011;838;51.794;12.258;2023-12-14T11:38:04;22.20;;;10.40;;
1679;SDS011;838;51.794;12.258;2023-12-14T11:40:40;20.37;;;10.97;;
1679;SDS011;838;51.794;12.258;2023-12-14T11:43:06;25.27;;;11.93;;
1679;SDS011;838;51.794;12.258;2023-12-14T11:45:37;25.87;;;11.03;;
1679;SDS011;838;51.794;12.258;2023-12-14T11:48:04;25.33;;;10.33;;
1679;SDS011;838;51.794;12.258;2023-12-14T11:50:32;22.13;;;11.40;;
1679;SDS011;838;51.794;12.258;2023-12-14T11:53:01;21.10;;;11.57;;
1679;SDS011;838;51.794;12.258;2023-12-14T11:55:28;20.97;;;11.80;;
1679;SDS011;838;51.794;12.258;2023-12-14T11:57:58;28.00;;;11.87;;
1679;SDS011;838;51.794;12.258;2023-12-14T12:00:28;29.70;;;11.37;;
1679;SDS011;838;51.794;12.258;2023-12-14T12:05:47;21.53;;;12.30;;
1679;SDS011;838;51.794;12.258;2023-12-14T12:08:15;23.10;;;11.97;;
1679;SDS011;838;51.794;12.258;2023-12-14T12:10:44;23.43;;;11.23;;
1679;SDS011;838;51.794;12.258;2023-12-14T12:13:13;25.97;;;11.30;;
1679;SDS011;838;51.794;12.258;2023-12-14T12:15:43;21.20;;;10.80;;
1679;SDS011;838;51.794;12.258;2023-12-14T12:18:10;24.90;;;12.00;;
1679;SDS011;838;51.794;12.258;2023-12-14T12:20:37;22.60;;;11.53;;
1679;SDS011;838;51.794;12.258;2023-12-14T12:23:03;21.60;;;11.30;;
1679;SDS011;838;51.794;12.258;2023-12-14T12:25:29;27.60;;;12.80;;
1679;SDS011;838;51.794;12.258;2023-12-14T12:27:58;22.00;;;12.67;;
1679;SDS011;838;51.794;12.258;2023-12-14T12:30:24;25.93;;;13.40;;
1679;SDS011;838;51.794;12.258;2023-12-14T12:32:51;23.40;;;12.47;;
1679;SDS011;838;51.794;12.258;2023-12-14T12:35:20;25.70;;;11.80;;
1679;SDS011;838;51.794;12.258;2023-12-14T12:37:46;31.67;;;13.57;;
1679;SDS011;838;51.794;12.258;2023-12-14T12:40:11;21.43;;;11.53;;
1679;SDS011;838;51.794;12.258;2023-12-14T12:42:40;22.67;;;12.47;;
1679;SDS011;838;51.794;12.258;2023-12-14T12:45:06;26.37;;;13.87;;
1679;SDS011;838;51.794;12.258;2023-12-14T12:47:31;25.40;;;11.17;;
1679;SDS011;838;51.794;12.258;2023-12-14T12:49:57;29.03;;;12.90;;
1679;SDS011;838;51.794;12.258;2023-12-14T12:52:23;19.90;;;10.87;;
1679;SDS011;838;51.794;12.258;2023-12-14T12:54:49;28.53;;;13.30;;
1679;SDS011;838;51.794;12.258;2023-12-14T12:57:15;28.30;;;13.07;;
1679;SDS011;838;51.794;12.258;2023-12-14T12:59:40;28.80;;;13.17;;
1679;SDS011;838;51.794;12.258;2023-12-14T13:02:06;29.43;;;13.63;;
1679;SDS011;838;51.794;12.258;2023-12-14T13:04:32;23.80;;;13.87;;
1679;SDS011;838;51.794;12.258;2023-12-14T13:06:58;27.30;;;14.13;;
1679;SDS011;838;51.794;12.258;2023-12-14T13:09:27;27.73;;;12.47;;
1679;SDS011;838;51.794;12.258;2023-12-14T13:11:52;32.67;;;14.00;;
1679;SDS011;838;51.794;12.258;2023-12-14T13:14:18;29.97;;;14.63;;
1679;SDS011;838;51.794;12.258;2023-12-14T13:16:44;27.07;;;14.43;;
1679;SDS011;838;51.794;12.258;2023-12-14T13:19:10;34.33;;;15.50;;
1679;SDS011;838;51.794;12.258;2023-12-14T13:21:35;24.43;;;12.60;;
1679;SDS011;838;51.794;12.258;2023-12-14T13:24:02;28.70;;;14.43;;
1679;SDS011;838;51.794;12.258;2023-12-14T13:26:28;27.97;;;13.37;;
1679;SDS011;838;51.794;12.258;2023-12-14T13:28:54;29.40;;;14.10;;
1679;SDS011;838;51.794;12.258;2023-12-14T13:31:20;27.90;;;15.67;;
1679;SDS011;838;51.794;12.258;2023-12-14T13:33:47;30.30;;;16.27;;
1679;SDS011;838;51.794;12.258;2023-12-14T13:36:14;28.07;;;14.83;;
1679;SDS011;838;51.794;12.258;2023-12-14T13:38:40;27.40;;;14.63;;
1679;SDS011;838;51.794;12.258;2023-12-14T13:41:06;31.93;;;14.70;;
1679;SDS011;838;51.794;12.258;2023-12-14T13:43:33;27.83;;;14.93;;
1679;SDS011;838;51.794;12.258;2023-12-14T13:45:59;28.03;;;14.53;;
1679;SDS011;838;51.794;12.258;2023-12-14T13:48:25;28.83;;;14.13;;
1679;SDS011;838;51.794;12.258;2023-12-14T13:50:51;31.17;;;14.70;;
1679;SDS011;838;51.794;12.258;2023-12-14T13:53:17;37.97;;;15.60;;
1679;SDS011;838;51.794;12.258;2023-12-14T13:55:43;34.20;;;17.07;;
1679;SDS011;838;51.794;12.258;2023-12-14T13:58:09;31.03;;;17.47;;
1679;SDS011;838;51.794;12.258;2023-12-14T14:00:34;28.37;;;16.27;;
1679;SDS011;838;51.794;12.258;2023-12-14T14:03:01;25.13;;;12.50;;
1679;SDS011;838;51.794;12.258;2023-12-14T14:05:28;25.43;;;13.57;;
1679;SDS011;838;51.794;12.258;2023-12-14T14:07:54;27.97;;;12.93;;
1679;SDS011;838;51.794;12.258;2023-12-14T14:10:20;27.03;;;13.77;;
1679;SDS011;838;51.794;12.258;2023-12-14T14:12:46;29.40;;;14.00;;
1679;SDS011;838;51.794;12.258;2023-12-14T14:15:12;23.80;;;13.03;;
1679;SDS011;838;51.794;12.258;2023-12-14T14:17:38;27.70;;;13.57;;
1679;SDS011;838;51.794;12.258;2023-12-14T14:20:04;29.13;;;15.10;;
1679;SDS011;838;51.794;12.258;2023-12-14T14:22:32;24.73;;;13.33;;
1679;SDS011;838;51.794;12.258;2023-12-14T14:24:58;25.70;;;12.70;;
1679;SDS011;838;51.794;12.258;2023-12-14T14:27:24;27.97;;;14.67;;
1679;SDS011;838;51.794;12.258;2023-12-14T14:29:49;27.50;;;13.53;;
1679;SDS011;838;51.794;12.258;2023-12-14T14:32:19;26.67;;;14.30;;
1679;SDS011;838;51.794;12.258;2023-12-14T14:34:44;27.73;;;14.50;;
1679;SDS011;838;51.794;12.258;2023-12-14T14:37:10;28.67;;;13.97;;
1679;SDS011;838;51.794;12.258;2023-12-14T14:39:36;28.80;;;12.80;;
1679;SDS011;838;51.794;12.258;2023-12-14T14:42:04;24.00;;;12.67;;
1679;SDS011;838;51.794;12.258;2023-12-14T14:44:30;22.27;;;11.60;;
1679;SDS011;838;51.794;12.258;2023-12-14T14:46:56;23.33;;;12.40;;
1679;SDS011;838;51.794;12.258;2023-12-14T14:49:23;27.27;;;13.00;;
1679;SDS011;838;51.794;12.258;2023-12-14T14:51:48;19.57;;;11.20;;
1679;SDS011;838;51.794;12.258;2023-12-14T14:54:14;26.83;;;12.57;;
1679;SDS011;838;51.794;12.258;2023-12-14T14:56:40;24.67;;;11.90;;
1679;SDS011;838;51.794;12.258;2023-12-14T14:59:06;23.00;;;12.43;;